Aviation Digital Data Service (ADDS)

Output produced by METARs form (0021 UTC 17 July 2019)
found at http://www.aviationweather.gov/metar/data/
 
METAR text: HESN 162300Z 33003KT CAVOK 33/06 Q1006 NOSIG
Conditions at: HESN (ASWAN (CIV/MIL) , EG) observed 2300 UTC 16 July 2019
Temperature: 33.0°C (91°F)
Dewpoint: 6.0°C (43°F) [RH = 19%]
Pressure (altimeter): 29.70 inches Hg (1006.0 mb)
Winds: from the NNW (330 degrees) at 3 MPH (3 knots; 1.5 m/s)
Visibility: 6 or more miles (10+ km)
Ceiling: ceiling and visibility are OK
Clouds: unknown
Weather: no significant weather observed at this time

METAR text: HESN 162200Z 32003KT CAVOK 34/06 Q1006 NOSIG
Conditions at: HESN (ASWAN (CIV/MIL) , EG) observed 2200 UTC 16 July 2019
Temperature: 34.0°C (93°F)
Dewpoint: 6.0°C (43°F) [RH = 18%]
Pressure (altimeter): 29.70 inches Hg (1006.0 mb)
Winds: from the NW (320 degrees) at 3 MPH (3 knots; 1.5 m/s)
Visibility: 6 or more miles (10+ km)
Ceiling: ceiling and visibility are OK
Clouds: unknown
Weather: no significant weather observed at this time

METAR text: HESN 162100Z 01002KT CAVOK 35/08 Q1007 NOSIG
Conditions at: HESN (ASWAN (CIV/MIL) , EG) observed 2100 UTC 16 July 2019
Temperature: 35.0°C (95°F)
Dewpoint: 8.0°C (46°F) [RH = 19%]
Pressure (altimeter): 29.73 inches Hg (1007.0 mb)
Winds: from the N (10 degrees) at 2 MPH (2 knots; 1.0 m/s)
Visibility: 6 or more miles (10+ km)
Ceiling: ceiling and visibility are OK
Clouds: unknown
Weather: no significant weather observed at this time

METAR text: HESN 162000Z 02003KT CAVOK 35/07 Q1007 NOSIG
Conditions at: HESN (ASWAN (CIV/MIL) , EG) observed 2000 UTC 16 July 2019
Temperature: 35.0°C (95°F)
Dewpoint: 7.0°C (45°F) [RH = 18%]
Pressure (altimeter): 29.73 inches Hg (1007.0 mb)
Winds: from the NNE (20 degrees) at 3 MPH (3 knots; 1.5 m/s)
Visibility: 6 or more miles (10+ km)
Ceiling: ceiling and visibility are OK
Clouds: unknown
Weather: no significant weather observed at this time

METAR text: HESN 161900Z 01002KT CAVOK 36/07 Q1006 NOSIG
Conditions at: HESN (ASWAN (CIV/MIL) , EG) observed 1900 UTC 16 July 2019
Temperature: 36.0°C (97°F)
Dewpoint: 7.0°C (45°F) [RH = 17%]
Pressure (altimeter): 29.70 inches Hg (1006.0 mb)
Winds: from the N (10 degrees) at 2 MPH (2 knots; 1.0 m/s)
Visibility: 6 or more miles (10+ km)
Ceiling: ceiling and visibility are OK
Clouds: unknown
Weather: no significant weather observed at this time

METAR text: HESN 161800Z 03003KT CAVOK 37/06 Q1006 NOSIG
Conditions at: HESN (ASWAN (CIV/MIL) , EG) observed 1800 UTC 16 July 2019
Temperature: 37.0°C (99°F)
Dewpoint: 6.0°C (43°F) [RH = 15%]
Pressure (altimeter): 29.70 inches Hg (1006.0 mb)
Winds: from the NNE (30 degrees) at 3 MPH (3 knots; 1.5 m/s)
Visibility: 6 or more miles (10+ km)
Ceiling: ceiling and visibility are OK
Clouds: unknown
Weather: no significant weather observed at this time

METAR text: HESN 161700Z 03006KT CAVOK 39/07 Q1005 NOSIG
Conditions at: HESN (ASWAN (CIV/MIL) , EG) observed 1700 UTC 16 July 2019
Temperature: 39.0°C (102°F)
Dewpoint: 7.0°C (45°F) [RH = 14%]
Pressure (altimeter): 29.68 inches Hg (1005.0 mb)
Winds: from the NNE (30 degrees) at 7 MPH (6 knots; 3.1 m/s)
Visibility: 6 or more miles (10+ km)
Ceiling: ceiling and visibility are OK
Clouds: unknown
Weather: no significant weather observed at this time

METAR text: HESN 161600Z 01007KT CAVOK 41/07 Q1005 NOSIG
Conditions at: HESN (ASWAN (CIV/MIL) , EG) observed 1600 UTC 16 July 2019
Temperature: 41.0°C (106°F)
Dewpoint: 7.0°C (45°F) [RH = 13%]
Pressure (altimeter): 29.68 inches Hg (1005.0 mb)
Winds: from the N (10 degrees) at 8 MPH (7 knots; 3.6 m/s)
Visibility: 6 or more miles (10+ km)
Ceiling: ceiling and visibility are OK
Clouds: unknown
Weather: no significant weather observed at this time

METAR text: HESN 161500Z 36006KT CAVOK 42/06 Q1005 NOSIG
Conditions at: HESN (ASWAN (CIV/MIL) , EG) observed 1500 UTC 16 July 2019
Temperature: 42.0°C (108°F)
Dewpoint: 6.0°C (43°F) [RH = 11%]
Pressure (altimeter): 29.68 inches Hg (1005.0 mb)
Winds: from the N (360 degrees) at 7 MPH (6 knots; 3.1 m/s)
Visibility: 6 or more miles (10+ km)
Ceiling: ceiling and visibility are OK
Clouds: unknown
Weather: no significant weather observed at this time

METAR text: HESN 161400Z 35007KT CAVOK 42/07 Q1005 NOSIG
Conditions at: HESN (ASWAN (CIV/MIL) , EG) observed 1400 UTC 16 July 2019
Temperature: 42.0°C (108°F)
Dewpoint: 7.0°C (45°F) [RH = 12%]
Pressure (altimeter): 29.68 inches Hg (1005.0 mb)
Winds: from the N (350 degrees) at 8 MPH (7 knots; 3.6 m/s)
Visibility: 6 or more miles (10+ km)
Ceiling: ceiling and visibility are OK
Clouds: unknown
Weather: no significant weather observed at this time

METAR text: HESN 161300Z 01007KT CAVOK 42/07 Q1006 NOSIG
Conditions at: HESN (ASWAN (CIV/MIL) , EG) observed 1300 UTC 16 July 2019
Temperature: 42.0°C (108°F)
Dewpoint: 7.0°C (45°F) [RH = 12%]
Pressure (altimeter): 29.70 inches Hg (1006.0 mb)
Winds: from the N (10 degrees) at 8 MPH (7 knots; 3.6 m/s)
Visibility: 6 or more miles (10+ km)
Ceiling: ceiling and visibility are OK
Clouds: unknown
Weather: no significant weather observed at this time

METAR text: HESN 161200Z 36006KT CAVOK 41/08 Q1006 NOSIG
Conditions at: HESN (ASWAN (CIV/MIL) , EG) observed 1200 UTC 16 July 2019
Temperature: 41.0°C (106°F)
Dewpoint: 8.0°C (46°F) [RH = 14%]
Pressure (altimeter): 29.70 inches Hg (1006.0 mb)
Winds: from the N (360 degrees) at 7 MPH (6 knots; 3.1 m/s)
Visibility: 6 or more miles (10+ km)
Ceiling: ceiling and visibility are OK
Clouds: unknown
Weather: no significant weather observed at this time

METAR text: HESN 161100Z 36007KT CAVOK 40/08 Q1007 NOSIG
Conditions at: HESN (ASWAN (CIV/MIL) , EG) observed 1100 UTC 16 July 2019
Temperature: 40.0°C (104°F)
Dewpoint: 8.0°C (46°F) [RH = 15%]
Pressure (altimeter): 29.73 inches Hg (1007.0 mb)
Winds: from the N (360 degrees) at 8 MPH (7 knots; 3.6 m/s)
Visibility: 6 or more miles (10+ km)
Ceiling: ceiling and visibility are OK
Clouds: unknown
Weather: no significant weather observed at this time

METAR text: HESN 161000Z 33004KT CAVOK 39/09 Q1007 NOSIG
Conditions at: HESN (ASWAN (CIV/MIL) , EG) observed 1000 UTC 16 July 2019
Temperature: 39.0°C (102°F)
Dewpoint: 9.0°C (48°F) [RH = 16%]
Pressure (altimeter): 29.73 inches Hg (1007.0 mb)
Winds: from the NNW (330 degrees) at 5 MPH (4 knots; 2.1 m/s)
Visibility: 6 or more miles (10+ km)
Ceiling: ceiling and visibility are OK
Clouds: unknown
Weather: no significant weather observed at this time

METAR text: HESN 160900Z 33008KT CAVOK 39/10 Q1008 NOSIG
Conditions at: HESN (ASWAN (CIV/MIL) , EG) observed 0900 UTC 16 July 2019
Temperature: 39.0°C (102°F)
Dewpoint: 10.0°C (50°F) [RH = 18%]
Pressure (altimeter): 29.76 inches Hg (1008.0 mb)
Winds: from the NNW (330 degrees) at 9 MPH (8 knots; 4.1 m/s)
Visibility: 6 or more miles (10+ km)
Ceiling: ceiling and visibility are OK
Clouds: unknown
Weather: no significant weather observed at this time

METAR text: HESN 160800Z 02008KT CAVOK 37/11 Q1009 NOSIG
Conditions at: HESN (ASWAN (CIV/MIL) , EG) observed 0800 UTC 16 July 2019
Temperature: 37.0°C (99°F)
Dewpoint: 11.0°C (52°F) [RH = 21%]
Pressure (altimeter): 29.79 inches Hg (1009.0 mb)
Winds: from the NNE (20 degrees) at 9 MPH (8 knots; 4.1 m/s)
Visibility: 6 or more miles (10+ km)
Ceiling: ceiling and visibility are OK
Clouds: unknown
Weather: no significant weather observed at this time

METAR text: HESN 160700Z 01009KT CAVOK 36/11 Q1009 NOSIG
Conditions at: HESN (ASWAN (CIV/MIL) , EG) observed 0700 UTC 16 July 2019
Temperature: 36.0°C (97°F)
Dewpoint: 11.0°C (52°F) [RH = 22%]
Pressure (altimeter): 29.79 inches Hg (1009.0 mb)
Winds: from the N (10 degrees) at 10 MPH (9 knots; 4.6 m/s)
Visibility: 6 or more miles (10+ km)
Ceiling: ceiling and visibility are OK
Clouds: unknown
Weather: no significant weather observed at this time

METAR text: HESN 160600Z 01005KT CAVOK 34/11 Q1008 NOSIG
Conditions at: HESN (ASWAN (CIV/MIL) , EG) observed 0600 UTC 16 July 2019
Temperature: 34.0°C (93°F)
Dewpoint: 11.0°C (52°F) [RH = 25%]
Pressure (altimeter): 29.76 inches Hg (1008.0 mb)
Winds: from the N (10 degrees) at 6 MPH (5 knots; 2.6 m/s)
Visibility: 6 or more miles (10+ km)
Ceiling: ceiling and visibility are OK
Clouds: unknown
Weather: no significant weather observed at this time

METAR text: HESN 160500Z 34004KT CAVOK 32/10 Q1008 NOSIG
Conditions at: HESN (ASWAN (CIV/MIL) , EG) observed 0500 UTC 16 July 2019
Temperature: 32.0°C (90°F)
Dewpoint: 10.0°C (50°F) [RH = 26%]
Pressure (altimeter): 29.76 inches Hg (1008.0 mb)
Winds: from the NNW (340 degrees) at 5 MPH (4 knots; 2.1 m/s)
Visibility: 6 or more miles (10+ km)
Ceiling: ceiling and visibility are OK
Clouds: unknown
Weather: no significant weather observed at this time

METAR text: HESN 160400Z 33004KT CAVOK 30/10 Q1008 NOSIG
Conditions at: HESN (ASWAN (CIV/MIL) , EG) observed 0400 UTC 16 July 2019
Temperature: 30.0°C (86°F)
Dewpoint: 10.0°C (50°F) [RH = 29%]
Pressure (altimeter): 29.76 inches Hg (1008.0 mb)
Winds: from the NNW (330 degrees) at 5 MPH (4 knots; 2.1 m/s)
Visibility: 6 or more miles (10+ km)
Ceiling: ceiling and visibility are OK
Clouds: unknown
Weather: no significant weather observed at this time

METAR text: HESN 160300Z 34003KT CAVOK 29/09 Q1007 NOSIG
Conditions at: HESN (ASWAN (CIV/MIL) , EG) observed 0300 UTC 16 July 2019
Temperature: 29.0°C (84°F)
Dewpoint: 9.0°C (48°F) [RH = 29%]
Pressure (altimeter): 29.73 inches Hg (1007.0 mb)
Winds: from the NNW (340 degrees) at 3 MPH (3 knots; 1.5 m/s)
Visibility: 6 or more miles (10+ km)
Ceiling: ceiling and visibility are OK
Clouds: unknown
Weather: no significant weather observed at this time

METAR text: HESN 160200Z 33005KT CAVOK 30/08 Q1007 NOSIG
Conditions at: HESN (ASWAN (CIV/MIL) , EG) observed 0200 UTC 16 July 2019
Temperature: 30.0°C (86°F)
Dewpoint: 8.0°C (46°F) [RH = 25%]
Pressure (altimeter): 29.73 inches Hg (1007.0 mb)
Winds: from the NNW (330 degrees) at 6 MPH (5 knots; 2.6 m/s)
Visibility: 6 or more miles (10+ km)
Ceiling: ceiling and visibility are OK
Clouds: unknown
Weather: no significant weather observed at this time

METAR text: HESN 160100Z 01004KT CAVOK 30/08 Q1007 NOSIG
Conditions at: HESN (ASWAN (CIV/MIL) , EG) observed 0100 UTC 16 July 2019
Temperature: 30.0°C (86°F)
Dewpoint: 8.0°C (46°F) [RH = 25%]
Pressure (altimeter): 29.73 inches Hg (1007.0 mb)
Winds: from the N (10 degrees) at 5 MPH (4 knots; 2.1 m/s)
Visibility: 6 or more miles (10+ km)
Ceiling: ceiling and visibility are OK
Clouds: unknown
Weather: no significant weather observed at this time

METAR text: HESN 160000Z 01005KT CAVOK 30/06 Q1007 NOSIG
Conditions at: HESN (ASWAN (CIV/MIL) , EG) observed 0000 UTC 16 July 2019
Temperature: 30.0°C (86°F)
Dewpoint: 6.0°C (43°F) [RH = 22%]
Pressure (altimeter): 29.73 inches Hg (1007.0 mb)
Winds: from the N (10 degrees) at 6 MPH (5 knots; 2.6 m/s)
Visibility: 6 or more miles (10+ km)
Ceiling: ceiling and visibility are OK
Clouds: unknown
Weather: no significant weather observed at this time

METAR text: HESN 152300Z 01005KT CAVOK 31/06 Q1007 NOSIG
Conditions at: HESN (ASWAN (CIV/MIL) , EG) observed 2300 UTC 15 July 2019
Temperature: 31.0°C (88°F)
Dewpoint: 6.0°C (43°F) [RH = 21%]
Pressure (altimeter): 29.73 inches Hg (1007.0 mb)
Winds: from the N (10 degrees) at 6 MPH (5 knots; 2.6 m/s)
Visibility: 6 or more miles (10+ km)
Ceiling: ceiling and visibility are OK
Clouds: unknown
Weather: no significant weather observed at this time

METAR text: HESN 152200Z 33006KT CAVOK 33/04 Q1008 NOSIG
Conditions at: HESN (ASWAN (CIV/MIL) , EG) observed 2200 UTC 15 July 2019
Temperature: 33.0°C (91°F)
Dewpoint: 4.0°C (39°F) [RH = 16%]
Pressure (altimeter): 29.76 inches Hg (1008.0 mb)
Winds: from the NNW (330 degrees) at 7 MPH (6 knots; 3.1 m/s)
Visibility: 6 or more miles (10+ km)
Ceiling: ceiling and visibility are OK
Clouds: unknown
Weather: no significant weather observed at this time

METAR text: HESN 152100Z 32003KT CAVOK 33/03 Q1008 NOSIG
Conditions at: HESN (ASWAN (CIV/MIL) , EG) observed 2100 UTC 15 July 2019
Temperature: 33.0°C (91°F)
Dewpoint: 3.0°C (37°F) [RH = 15%]
Pressure (altimeter): 29.76 inches Hg (1008.0 mb)
Winds: from the NW (320 degrees) at 3 MPH (3 knots; 1.5 m/s)
Visibility: 6 or more miles (10+ km)
Ceiling: ceiling and visibility are OK
Clouds: unknown
Weather: no significant weather observed at this time

METAR text: HESN 152000Z 01005KT CAVOK 35/07 Q1008 NOSIG
Conditions at: HESN (ASWAN (CIV/MIL) , EG) observed 2000 UTC 15 July 2019
Temperature: 35.0°C (95°F)
Dewpoint: 7.0°C (45°F) [RH = 18%]
Pressure (altimeter): 29.76 inches Hg (1008.0 mb)
Winds: from the N (10 degrees) at 6 MPH (5 knots; 2.6 m/s)
Visibility: 6 or more miles (10+ km)
Ceiling: ceiling and visibility are OK
Clouds: unknown
Weather: no significant weather observed at this time

METAR text: HESN 151800Z 30009KT CAVOK 38/00 Q1006
Conditions at: HESN (ASWAN (CIV/MIL) , EG) observed 1800 UTC 15 July 2019
Temperature: 38.0°C (100°F)
Dewpoint: 0.0°C (32°F) [RH =  9%]
Pressure (altimeter): 29.70 inches Hg (1006.0 mb)
Winds: from the WNW (300 degrees) at 10 MPH (9 knots; 4.6 m/s)
Visibility: 6 or more miles (10+ km)
Ceiling: ceiling and visibility are OK
Clouds: unknown
Weather: no significant weather observed at this time

METAR text: HESN 151700Z WIND 290/11KT WEATHER CAVOK T 40 DP 00 Q1006 NOSIG
Conditions at: HESN (ASWAN (CIV/MIL) , EG) observed 1700 UTC 15 July 2019
Temperature: missing
Dewpoint: missing
Pressure (altimeter): 29.70 inches Hg (1006.0 mb)
Winds: missing
Visibility: 6 or more miles (10+ km)
Ceiling: ceiling and visibility are OK
Clouds: unknown
Weather: no significant weather observed at this time

METAR text: HESN 151600Z 31013KT CAVOK 41/03 Q1005 NOSIG
Conditions at: HESN (ASWAN (CIV/MIL) , EG) observed 1600 UTC 15 July 2019
Temperature: 41.0°C (106°F)
Dewpoint: 3.0°C (37°F) [RH = 10%]
Pressure (altimeter): 29.68 inches Hg (1005.0 mb)
Winds: from the NW (310 degrees) at 15 MPH (13 knots; 6.7 m/s)
Visibility: 6 or more miles (10+ km)
Ceiling: ceiling and visibility are OK
Clouds: unknown
Weather: no significant weather observed at this time

METAR text: HESN 151500Z 28016KT CAVOK 42/05 Q1005 NOSIG
Conditions at: HESN (ASWAN (CIV/MIL) , EG) observed 1500 UTC 15 July 2019
Temperature: 42.0°C (108°F)
Dewpoint: 5.0°C (41°F) [RH = 11%]
Pressure (altimeter): 29.68 inches Hg (1005.0 mb)
Winds: from the W (280 degrees) at 18 MPH (16 knots; 8.2 m/s)
Visibility: 6 or more miles (10+ km)
Ceiling: ceiling and visibility are OK
Clouds: unknown
Weather: no significant weather observed at this time

METAR text: HESN 151400Z 30012KT CAVOK 42/05 Q1005 NOSIG
Conditions at: HESN (ASWAN (CIV/MIL) , EG) observed 1400 UTC 15 July 2019
Temperature: 42.0°C (108°F)
Dewpoint: 5.0°C (41°F) [RH = 11%]
Pressure (altimeter): 29.68 inches Hg (1005.0 mb)
Winds: from the WNW (300 degrees) at 14 MPH (12 knots; 6.2 m/s)
Visibility: 6 or more miles (10+ km)
Ceiling: ceiling and visibility are OK
Clouds: unknown
Weather: no significant weather observed at this time

METAR text: HESN 151300Z WIND 310/13KT WEATHER CAVOK T 43 DP 06 Q1005
Conditions at: HESN (ASWAN (CIV/MIL) , EG) observed 1300 UTC 15 July 2019
Temperature: missing
Dewpoint: missing
Pressure (altimeter): 29.68 inches Hg (1005.0 mb)
Winds: missing
Visibility: 6 or more miles (10+ km)
Ceiling: ceiling and visibility are OK
Clouds: unknown
Weather: no significant weather observed at this time

Forecast for: HESN (ASWAN (CIV/MIL) , EG)
Text: TAF HESN 162300Z 1700/1806 02010KT CAVOK
Forecast period: 0000 UTC 17 July 2019 to 0600 UTC 18 July 2019
Forecast type: FROM: standard forecast or significant change
Winds: from the NNE (20 degrees) at 12 MPH (10 knots; 5.1 m/s)
Visibility: 6 or more miles 10+ km)
Ceiling: unknown
Clouds: missing
Weather: NSW  (no significant weather)